createdAt,value
2023-02-26T00:01:40.132Z,0.40
2023-02-26T00:04:09.136Z,0.40
2023-02-26T00:06:52.373Z,0.30
2023-02-26T00:09:21.440Z,0.30
2023-02-26T00:11:50.399Z,0.20
2023-02-26T00:14:18.928Z,0.30
2023-02-26T00:16:51.634Z,0.20
2023-02-26T00:19:20.152Z,0.20
2023-02-26T00:21:49.979Z,0.10
2023-02-26T00:24:17.916Z,0.10
2023-02-26T00:26:45.861Z,0.10
2023-02-26T00:29:14.355Z,0.00
2023-02-26T00:31:42.980Z,0.00
2023-02-26T00:34:13.990Z,0.00
2023-02-26T00:36:46.857Z,0.00
2023-02-26T00:39:33.774Z,-0.10
2023-02-26T00:42:02.285Z,0.00
2023-02-26T00:44:31.629Z,0.00
2023-02-26T00:47:06.118Z,0.00
2023-02-26T00:49:50.189Z,0.00
2023-02-26T00:52:28.288Z,0.00
2023-02-26T00:54:57.594Z,0.10
2023-02-26T00:57:25.541Z,0.10
2023-02-26T00:59:53.454Z,0.20
2023-02-26T01:02:21.725Z,0.10
2023-02-26T01:04:50.371Z,0.10
2023-02-26T01:07:23.489Z,0.10
2023-02-26T01:09:52.090Z,0.20
2023-02-26T01:12:21.986Z,0.20
2023-02-26T01:14:52.233Z,0.20
2023-02-26T01:17:24.802Z,0.20
2023-02-26T01:19:56.641Z,0.20
2023-02-26T01:22:30.620Z,0.20
2023-02-26T01:25:04.583Z,0.20
2023-02-26T01:27:34.541Z,0.20
2023-02-26T01:30:03.244Z,0.30
2023-02-26T01:32:40.018Z,0.30
2023-02-26T01:35:18.601Z,0.30
2023-02-26T01:37:54.019Z,0.20
2023-02-26T01:41:07.961Z,0.30
2023-02-26T01:43:44.123Z,0.20
2023-02-26T01:46:18.078Z,0.30
2023-02-26T01:48:51.715Z,0.30
2023-02-26T01:51:20.355Z,0.20
2023-02-26T01:53:48.302Z,0.30
2023-02-26T01:56:19.011Z,0.30
2023-02-26T01:58:51.052Z,0.30
2023-02-26T02:01:19.018Z,0.30
2023-02-26T02:03:47.227Z,0.30
2023-02-26T02:06:19.319Z,0.30
2023-02-26T02:08:47.960Z,0.30
2023-02-26T02:11:16.666Z,0.30
2023-02-26T02:13:58.671Z,0.30
2023-02-26T02:16:38.495Z,0.20
2023-02-26T02:19:24.127Z,0.10
2023-02-26T02:22:16.321Z,0.20
2023-02-26T02:24:59.110Z,0.20
2023-02-26T02:27:36.632Z,0.10
2023-02-26T02:30:18.232Z,0.00
2023-02-26T02:32:51.995Z,0.00
2023-02-26T02:35:24.172Z,0.00
2023-02-26T02:37:57.592Z,0.00
2023-02-26T02:40:29.505Z,-0.10
2023-02-26T02:43:01.973Z,-0.10
2023-02-26T02:45:35.193Z,0.00
2023-02-26T02:48:09.284Z,0.10
2023-02-26T02:50:41.669Z,0.10
2023-02-26T02:53:15.169Z,0.00
2023-02-26T02:55:50.015Z,0.00
2023-02-26T02:58:22.085Z,0.00
2023-02-26T03:00:52.330Z,0.00
2023-02-26T03:03:28.934Z,0.00
2023-02-26T03:05:56.972Z,0.10
2023-02-26T03:08:30.623Z,0.10
2023-02-26T03:10:59.356Z,0.10
2023-02-26T03:13:27.655Z,0.10
2023-02-26T03:16:06.685Z,0.10
2023-02-26T03:18:48.868Z,0.00
2023-02-26T03:21:26.532Z,-0.10
2023-02-26T03:24:00.375Z,-0.20
2023-02-26T03:26:33.605Z,-0.20
2023-02-26T03:29:09.464Z,-0.10
2023-02-26T03:31:42.581Z,-0.10
2023-02-26T03:34:18.260Z,0.00
2023-02-26T03:36:52.699Z,0.00
2023-02-26T03:39:25.012Z,0.00
2023-02-26T03:41:58.840Z,0.00
2023-02-26T03:44:31.703Z,-0.10
2023-02-26T03:47:03.961Z,0.00
2023-02-26T03:49:38.917Z,-0.10
2023-02-26T03:52:07.788Z,-0.10
2023-02-26T03:54:40.132Z,-0.20
2023-02-26T03:57:08.215Z,-0.20
2023-02-26T03:59:36.910Z,-0.20
2023-02-26T04:02:11.003Z,-0.20
2023-02-26T04:04:45.664Z,-0.20
2023-02-26T04:07:16.968Z,-0.20
2023-02-26T04:09:47.001Z,-0.20
2023-02-26T04:12:15.472Z,-0.10
2023-02-26T04:14:43.474Z,-0.20
2023-02-26T04:17:11.402Z,-0.20
2023-02-26T04:19:40.735Z,-0.20
2023-02-26T04:22:08.744Z,-0.20
2023-02-26T04:24:36.910Z,-0.10
2023-02-26T04:27:05.218Z,0.00
2023-02-26T04:29:33.164Z,-0.10
2023-02-26T04:32:01.881Z,0.00
2023-02-26T04:34:29.873Z,-0.10
2023-02-26T04:36:59.217Z,-0.10
2023-02-26T04:39:27.147Z,0.00
2023-02-26T04:41:55.100Z,-0.10
2023-02-26T04:44:23.201Z,-0.10
2023-02-26T04:46:51.919Z,-0.20
2023-02-26T04:49:19.868Z,-0.20
2023-02-26T04:51:47.938Z,-0.10
2023-02-26T04:54:17.615Z,-0.10
2023-02-26T04:56:45.563Z,-0.10
2023-02-26T04:59:13.513Z,-0.20
2023-02-26T05:01:41.556Z,-0.30
2023-02-26T05:04:09.620Z,-0.30
2023-02-26T05:06:37.615Z,-0.40
2023-02-26T05:09:06.150Z,-0.60
2023-02-26T05:11:35.477Z,-0.50
2023-02-26T05:14:03.492Z,-0.50
2023-02-26T05:16:31.510Z,-0.60
2023-02-26T05:18:59.498Z,-0.60
2023-02-26T05:21:27.859Z,-0.60
2023-02-26T05:23:55.784Z,-0.70
2023-02-26T05:26:24.089Z,-0.70
2023-02-26T05:28:53.963Z,-0.70
2023-02-26T05:31:22.379Z,-0.70
2023-02-26T05:33:50.420Z,-0.70
2023-02-26T05:36:18.372Z,-0.60
2023-02-26T05:38:46.416Z,-0.80
2023-02-26T05:41:14.423Z,-0.70
2023-02-26T05:43:42.379Z,-0.80
2023-02-26T05:46:11.762Z,-0.90
2023-02-26T05:48:39.709Z,-0.80
2023-02-26T05:51:07.769Z,-0.90
2023-02-26T05:53:35.746Z,-0.90
2023-02-26T05:56:05.824Z,-1.00
2023-02-26T05:58:34.192Z,-0.90
2023-02-26T06:01:02.315Z,-0.90
2023-02-26T06:03:31.726Z,-0.90
2023-02-26T06:05:59.666Z,-0.80
2023-02-26T06:08:27.675Z,-0.70
2023-02-26T06:10:55.626Z,-0.70
2023-02-26T06:13:23.605Z,-0.70
2023-02-26T06:15:53.693Z,-0.70
2023-02-26T06:18:21.740Z,-0.70
2023-02-26T06:20:51.024Z,-0.70
2023-02-26T06:23:18.976Z,-0.80
2023-02-26T06:25:46.929Z,-0.80
2023-02-26T06:28:14.915Z,-0.80
2023-02-26T06:30:42.885Z,-0.80
2023-02-26T06:33:10.887Z,-0.70
2023-02-26T06:35:39.049Z,-0.50
2023-02-26T06:38:08.425Z,-0.60
2023-02-26T06:40:36.398Z,-0.60
2023-02-26T06:43:04.473Z,-0.60
2023-02-26T06:45:32.481Z,-0.50
2023-02-26T06:48:00.666Z,-0.40
2023-02-26T06:50:28.672Z,-0.50
2023-02-26T06:52:56.849Z,-0.40
2023-02-26T06:55:26.963Z,-0.40
2023-02-26T06:57:55.212Z,-0.30
2023-02-26T07:00:24.802Z,-0.20
2023-02-26T07:02:53.648Z,-0.10
2023-02-26T07:05:21.869Z,-0.20
2023-02-26T07:07:49.990Z,-0.10
2023-02-26T07:10:18.348Z,-0.20
2023-02-26T07:12:48.524Z,-0.10
2023-02-26T07:15:16.598Z,0.00
2023-02-26T07:17:44.860Z,0.00
2023-02-26T07:20:14.502Z,0.10
2023-02-26T07:22:42.511Z,0.10
2023-02-26T07:25:11.124Z,0.00
2023-02-26T07:27:39.364Z,-0.10
2023-02-26T07:30:11.032Z,-0.10
2023-02-26T07:32:39.020Z,-0.10
2023-02-26T07:35:07.695Z,0.10
2023-02-26T07:37:35.686Z,0.20
2023-02-26T07:40:04.399Z,0.30
2023-02-26T07:42:32.332Z,0.30
2023-02-26T07:45:00.561Z,0.20
2023-02-26T07:47:30.634Z,0.20
2023-02-26T07:49:58.642Z,0.20
2023-02-26T07:52:26.627Z,0.20
2023-02-26T07:54:54.567Z,0.30
2023-02-26T07:57:22.523Z,0.20
2023-02-26T07:59:50.465Z,0.30
2023-02-26T08:02:18.863Z,0.40
2023-02-26T08:04:48.158Z,0.50
2023-02-26T08:07:16.263Z,0.80
2023-02-26T08:09:44.255Z,0.80
2023-02-26T08:12:12.221Z,1.00
2023-02-26T08:14:41.621Z,1.10
2023-02-26T08:17:10.070Z,1.20
2023-02-26T08:19:38.251Z,1.10
2023-02-26T08:22:07.866Z,1.00
2023-02-26T08:24:36.151Z,1.20
2023-02-26T08:27:04.210Z,1.40
2023-02-26T08:29:32.393Z,1.40
2023-02-26T08:32:00.447Z,1.50
2023-02-26T08:34:28.599Z,1.30
2023-02-26T08:36:56.674Z,1.30
2023-02-26T08:39:26.137Z,1.30
2023-02-26T08:41:54.206Z,1.10
2023-02-26T08:44:22.392Z,1.10
2023-02-26T08:46:50.398Z,1.20
2023-02-26T08:49:18.371Z,1.20
2023-02-26T08:51:46.450Z,1.20
2023-02-26T08:54:14.612Z,1.20
2023-02-26T08:56:43.915Z,1.30
2023-02-26T08:59:13.231Z,1.30
2023-02-26T09:01:41.276Z,1.10
2023-02-26T09:04:09.266Z,1.20
2023-02-26T09:06:37.272Z,1.20
2023-02-26T09:09:05.478Z,1.40
2023-02-26T09:11:33.477Z,1.40
2023-02-26T09:14:03.537Z,1.20
2023-02-26T09:16:32.241Z,1.20
2023-02-26T09:19:00.239Z,1.10
2023-02-26T09:21:28.252Z,1.20
2023-02-26T09:23:56.213Z,1.20
2023-02-26T09:26:24.472Z,1.30
2023-02-26T09:28:52.639Z,1.20
2023-02-26T09:31:22.111Z,1.30
2023-02-26T09:33:50.115Z,1.50
2023-02-26T09:36:18.058Z,1.50
2023-02-26T09:38:47.838Z,1.40
2023-02-26T09:41:22.180Z,1.40
2023-02-26T09:44:08.809Z,1.60
2023-02-26T09:46:47.878Z,1.70
2023-02-26T09:49:26.062Z,1.90
2023-02-26T09:51:56.524Z,2.10
2023-02-26T09:54:27.940Z,2.10
2023-02-26T09:57:00.120Z,2.00
2023-02-26T09:59:31.344Z,1.90
2023-02-26T10:02:06.710Z,1.90
2023-02-26T10:04:51.521Z,2.00
2023-02-26T10:07:31.167Z,2.10
2023-02-26T10:10:10.098Z,1.80
2023-02-26T10:12:41.688Z,1.70
2023-02-26T10:15:14.484Z,1.60
2023-02-26T10:18:02.263Z,1.50
2023-02-26T10:20:36.047Z,1.50
2023-02-26T10:23:08.976Z,1.60
2023-02-26T10:25:41.828Z,1.90
2023-02-26T10:28:35.736Z,2.00
2023-02-26T10:31:09.764Z,2.10
2023-02-26T10:33:44.752Z,2.00
2023-02-26T10:36:20.025Z,2.00
2023-02-26T10:38:52.254Z,2.00
2023-02-26T10:41:28.100Z,2.20
2023-02-26T10:44:03.798Z,2.20
2023-02-26T10:46:41.628Z,2.20
2023-02-26T10:49:34.951Z,2.30
2023-02-26T10:52:12.759Z,2.40
2023-02-26T10:54:46.105Z,2.30
2023-02-26T10:57:20.809Z,2.30
2023-02-26T10:59:48.773Z,2.30
2023-02-26T11:02:36.731Z,2.30
2023-02-26T11:05:08.808Z,2.30
2023-02-26T11:07:40.219Z,2.20
2023-02-26T11:10:16.861Z,2.20
2023-02-26T11:12:45.750Z,2.30
2023-02-26T11:15:15.668Z,2.30
2023-02-26T11:17:44.488Z,2.40
2023-02-26T11:20:25.280Z,2.60
2023-02-26T11:22:57.428Z,2.60
2023-02-26T11:25:28.471Z,2.70
2023-02-26T11:28:01.426Z,2.60
2023-02-26T11:30:32.959Z,2.50
2023-02-26T11:33:14.056Z,2.50
2023-02-26T11:35:43.508Z,2.60
2023-02-26T11:38:19.461Z,2.60
2023-02-26T11:40:50.382Z,2.60
2023-02-26T11:43:20.469Z,2.60
2023-02-26T11:45:53.742Z,2.60
2023-02-26T11:48:24.776Z,2.50
2023-02-26T11:50:58.446Z,2.50
2023-02-26T11:53:31.827Z,2.40
2023-02-26T11:56:05.626Z,2.60
2023-02-26T11:58:38.535Z,2.70
2023-02-26T12:01:08.777Z,2.80
2023-02-26T12:03:41.066Z,2.70
2023-02-26T12:06:17.215Z,2.70
2023-02-26T12:08:45.386Z,2.50
2023-02-26T12:11:55.329Z,2.40
2023-02-26T12:14:41.602Z,2.60
2023-02-26T12:17:26.419Z,2.80
2023-02-26T12:20:07.809Z,2.90
2023-02-26T12:22:49.917Z,3.20
2023-02-26T12:25:45.724Z,2.90
2023-02-26T12:28:46.353Z,2.80
2023-02-26T12:31:36.575Z,2.80
2023-02-26T12:34:22.652Z,3.00
2023-02-26T12:37:04.896Z,3.40
2023-02-26T12:39:47.714Z,3.40
2023-02-26T12:42:24.438Z,3.60
2023-02-26T12:45:09.870Z,3.70
2023-02-26T12:47:49.512Z,3.70
2023-02-26T12:50:43.577Z,3.70
2023-02-26T12:53:28.324Z,3.60
2023-02-26T12:56:09.038Z,3.60
2023-02-26T12:58:52.576Z,3.60
2023-02-26T13:01:35.097Z,3.90
2023-02-26T13:04:36.804Z,3.90
2023-02-26T13:07:37.858Z,3.90
2023-02-26T13:10:16.220Z,4.00
2023-02-26T13:12:55.354Z,3.90
2023-02-26T13:16:01.240Z,4.10
2023-02-26T13:18:36.282Z,4.10
2023-02-26T13:21:07.440Z,4.20
2023-02-26T13:23:41.130Z,4.00
2023-02-26T13:26:11.415Z,3.90
2023-02-26T13:28:45.913Z,3.80
2023-02-26T13:31:18.842Z,3.70
2023-02-26T13:33:49.585Z,3.70
2023-02-26T13:36:18.308Z,3.60
2023-02-26T13:39:04.763Z,3.50
2023-02-26T13:41:41.529Z,3.30
2023-02-26T13:44:27.473Z,3.20
2023-02-26T13:47:44.760Z,3.10
2023-02-26T13:50:30.822Z,3.20
2023-02-26T13:53:05.059Z,3.20
2023-02-26T13:55:43.592Z,3.30
2023-02-26T13:58:33.065Z,3.40
2023-02-26T14:01:08.972Z,3.40
2023-02-26T14:03:41.816Z,3.40
2023-02-26T14:06:24.121Z,3.30
2023-02-26T14:08:55.978Z,3.30
2023-02-26T14:12:01.924Z,3.10
2023-02-26T14:14:38.303Z,3.00
2023-02-26T14:17:41.655Z,2.90
2023-02-26T14:20:26.022Z,3.00
2023-02-26T14:23:23.486Z,3.20
2023-02-26T14:25:54.946Z,3.30
2023-02-26T14:28:36.308Z,3.50
2023-02-26T14:31:17.544Z,3.60
2023-02-26T14:33:59.334Z,3.50
2023-02-26T14:36:35.583Z,3.50
2023-02-26T14:39:09.228Z,3.60
2023-02-26T14:41:41.325Z,3.60
2023-02-26T14:44:16.991Z,3.60
2023-02-26T14:46:46.435Z,3.60
2023-02-26T14:49:23.114Z,3.40
2023-02-26T14:52:05.426Z,3.30
2023-02-26T14:54:46.472Z,3.40
2023-02-26T14:57:26.364Z,3.30
2023-02-26T15:00:12.676Z,3.30
2023-02-26T15:03:02.051Z,3.20
2023-02-26T15:05:42.379Z,3.30
2023-02-26T15:08:33.434Z,3.20
2023-02-26T15:11:17.602Z,3.20
2023-02-26T15:14:16.023Z,3.10
2023-02-26T15:16:58.014Z,3.10
2023-02-26T15:19:47.521Z,3.10
2023-02-26T15:22:30.572Z,3.10
2023-02-26T15:25:01.089Z,3.00
2023-02-26T15:27:33.275Z,2.90
2023-02-26T15:30:02.384Z,2.90
2023-02-26T15:32:32.148Z,3.00
2023-02-26T15:35:02.797Z,3.10
2023-02-26T15:37:33.679Z,3.10
2023-02-26T15:40:04.844Z,3.10
2023-02-26T15:42:38.453Z,3.00
2023-02-26T15:45:13.554Z,3.00
2023-02-26T15:47:42.112Z,2.90
2023-02-26T15:50:15.800Z,2.80
2023-02-26T15:52:45.283Z,2.70
2023-02-26T15:55:18.950Z,2.60
2023-02-26T15:57:47.002Z,2.50
2023-02-26T16:00:24.687Z,2.40
2023-02-26T16:02:54.170Z,2.40
2023-02-26T16:05:22.160Z,2.40
2023-02-26T16:07:51.657Z,2.40
2023-02-26T16:10:29.922Z,2.40
2023-02-26T16:12:57.871Z,2.40
2023-02-26T16:15:32.616Z,2.40
2023-02-26T16:18:02.982Z,2.30
2023-02-26T16:20:38.155Z,2.30
2023-02-26T16:23:12.056Z,2.20
2023-02-26T16:25:45.619Z,2.10
2023-02-26T16:28:16.199Z,2.10
2023-02-26T16:30:46.995Z,2.00
2023-02-26T16:33:18.512Z,2.00
2023-02-26T16:35:48.921Z,1.90
2023-02-26T16:38:23.779Z,1.90
2023-02-26T16:40:58.894Z,1.90
2023-02-26T16:43:49.321Z,1.90
2023-02-26T16:46:22.596Z,1.80
2023-02-26T16:48:54.468Z,1.80
2023-02-26T16:51:25.282Z,1.70
2023-02-26T16:53:59.130Z,1.60
2023-02-26T16:56:31.018Z,1.60
2023-02-26T16:59:05.416Z,1.60
2023-02-26T17:01:37.861Z,1.50
2023-02-26T17:04:08.357Z,1.50
2023-02-26T17:06:39.987Z,1.40
2023-02-26T17:09:25.797Z,1.40
2023-02-26T17:12:05.853Z,1.40
2023-02-26T17:14:40.464Z,1.40
2023-02-26T17:17:08.467Z,1.30
2023-02-26T17:19:36.557Z,1.30
2023-02-26T17:22:05.539Z,1.30
2023-02-26T17:24:36.798Z,1.30
2023-02-26T17:27:06.238Z,1.40
2023-02-26T17:29:37.247Z,1.30
2023-02-26T17:32:05.979Z,1.40
2023-02-26T17:34:34.231Z,1.30
2023-02-26T17:37:05.696Z,1.30
2023-02-26T17:39:35.541Z,1.20
2023-02-26T17:42:03.682Z,1.20
2023-02-26T17:44:31.600Z,1.10
2023-02-26T17:46:59.547Z,1.10
2023-02-26T17:49:27.509Z,1.10
2023-02-26T17:51:55.471Z,1.00
2023-02-26T17:54:23.385Z,1.00
2023-02-26T17:56:52.854Z,0.90
2023-02-26T17:59:20.770Z,0.90
2023-02-26T18:01:48.780Z,0.90
2023-02-26T18:04:17.247Z,0.80
2023-02-26T18:06:45.314Z,0.70
2023-02-26T18:09:14.645Z,0.70
2023-02-26T18:11:43.010Z,0.70
2023-02-26T18:14:12.743Z,0.70
2023-02-26T18:16:42.864Z,0.60
2023-02-26T18:19:14.920Z,0.60
2023-02-26T18:21:43.329Z,0.50
2023-02-26T18:24:11.346Z,0.50
2023-02-26T18:26:39.421Z,0.50
2023-02-26T18:29:07.395Z,0.40
2023-02-26T18:31:37.087Z,0.40
2023-02-26T18:34:05.470Z,0.40
2023-02-26T18:36:37.642Z,0.40
2023-02-26T18:39:08.038Z,0.30
2023-02-26T18:41:36.086Z,0.30
2023-02-26T18:44:04.352Z,0.30
2023-02-26T18:46:34.775Z,0.40
2023-02-26T18:49:04.166Z,0.40
2023-02-26T18:51:32.595Z,0.40
2023-02-26T18:54:00.592Z,0.40
2023-02-26T18:56:28.597Z,0.50
2023-02-26T18:58:56.574Z,0.50
2023-02-26T19:01:24.731Z,0.50
2023-02-26T19:03:52.692Z,0.50
2023-02-26T19:06:21.966Z,0.50
2023-02-26T19:08:49.958Z,0.50
2023-02-26T19:11:17.930Z,0.50
2023-02-26T19:13:47.173Z,0.50
2023-02-26T19:16:16.256Z,0.50
2023-02-26T19:18:44.870Z,0.50
2023-02-26T19:21:12.827Z,0.50
2023-02-26T19:23:42.710Z,0.50
2023-02-26T19:26:10.629Z,0.50
2023-02-26T19:28:38.689Z,0.50
2023-02-26T19:31:07.133Z,0.50
2023-02-26T19:33:35.296Z,0.50
2023-02-26T19:36:03.795Z,0.50
2023-02-26T19:38:31.945Z,0.50
2023-02-26T19:41:01.535Z,0.50
2023-02-26T19:43:29.566Z,0.40
2023-02-26T19:45:57.597Z,0.40
2023-02-26T19:48:27.129Z,0.40
2023-02-26T19:50:56.390Z,0.30
2023-02-26T19:53:24.851Z,0.30
2023-02-26T19:55:52.791Z,0.30
2023-02-26T19:58:22.206Z,0.30
2023-02-26T20:00:50.399Z,0.30
2023-02-26T20:03:18.442Z,0.30
2023-02-26T20:05:47.545Z,0.30
2023-02-26T20:08:15.555Z,0.30
2023-02-26T20:10:45.764Z,0.20
2023-02-26T20:13:14.403Z,0.30
2023-02-26T20:15:44.296Z,0.30
2023-02-26T20:18:12.599Z,0.30
2023-02-26T20:20:41.615Z,0.30
2023-02-26T20:23:09.753Z,0.30
2023-02-26T20:25:38.418Z,0.30
2023-02-26T20:28:06.851Z,0.20
2023-02-26T20:30:35.226Z,0.20
2023-02-26T20:33:04.972Z,0.20
2023-02-26T20:35:35.764Z,0.10
2023-02-26T20:38:03.735Z,0.10
2023-02-26T20:40:31.770Z,0.10
2023-02-26T20:42:59.835Z,0.10
2023-02-26T20:45:28.007Z,0.10
2023-02-26T20:47:56.038Z,0.10
2023-02-26T20:50:25.388Z,0.10
2023-02-26T20:52:53.464Z,0.10
2023-02-26T20:55:21.605Z,0.10
2023-02-26T20:57:49.672Z,0.00
2023-02-26T21:00:18.755Z,0.00
2023-02-26T21:02:47.125Z,0.00
2023-02-26T21:05:16.081Z,0.00
2023-02-26T21:07:45.889Z,0.00
2023-02-26T21:10:16.474Z,-0.10
2023-02-26T21:12:44.786Z,-0.10
2023-02-26T21:15:14.581Z,-0.10
2023-02-26T21:17:44.234Z,-0.10
2023-02-26T21:20:17.850Z,-0.20
2023-02-26T21:22:50.997Z,-0.20
2023-02-26T21:25:19.222Z,-0.10
2023-02-26T21:27:47.603Z,-0.10
2023-02-26T21:30:19.929Z,-0.10
2023-02-26T21:32:49.089Z,-0.10
2023-02-26T21:35:18.411Z,-0.10
2023-02-26T21:37:48.130Z,-0.10
2023-02-26T21:40:17.255Z,-0.10
2023-02-26T21:42:45.721Z,-0.20
2023-02-26T21:45:13.996Z,-0.20
2023-02-26T21:47:41.981Z,-0.30
2023-02-26T21:50:11.566Z,-0.30
2023-02-26T21:52:39.638Z,-0.30
2023-02-26T21:55:09.893Z,-0.30
2023-02-26T21:57:38.073Z,-0.30
2023-02-26T22:00:10.226Z,-0.40
2023-02-26T22:02:38.292Z,-0.40
2023-02-26T22:05:06.616Z,-0.40
2023-02-26T22:07:34.554Z,-0.50
2023-02-26T22:10:02.589Z,-0.50
2023-02-26T22:12:31.899Z,-0.50
2023-02-26T22:14:59.862Z,-0.50
2023-02-26T22:17:27.860Z,-0.60
2023-02-26T22:19:55.841Z,-0.60
2023-02-26T22:22:24.491Z,-0.60
2023-02-26T22:24:52.502Z,-0.70
2023-02-26T22:27:20.496Z,-0.80
2023-02-26T22:29:49.828Z,-0.80
2023-02-26T22:32:17.787Z,-0.80
2023-02-26T22:34:46.232Z,-0.90
2023-02-26T22:37:14.539Z,-1.00
2023-02-26T22:39:42.615Z,-1.00
2023-02-26T22:42:10.591Z,-1.00
2023-02-26T22:44:39.425Z,-1.00
2023-02-26T22:47:10.226Z,-1.00
2023-02-26T22:49:38.194Z,-1.10
2023-02-26T22:52:07.798Z,-1.10
2023-02-26T22:54:36.350Z,-1.10
2023-02-26T22:57:04.463Z,-1.20
2023-02-26T22:59:32.407Z,-1.20
2023-02-26T23:02:00.526Z,-1.10
2023-02-26T23:04:29.836Z,-1.10
2023-02-26T23:06:58.059Z,-1.10
2023-02-26T23:09:26.153Z,-1.00
2023-02-26T23:11:54.323Z,-1.00
2023-02-26T23:14:22.666Z,-1.10
2023-02-26T23:16:50.750Z,-1.10
2023-02-26T23:19:19.083Z,-1.10
2023-02-26T23:21:48.409Z,-1.10
2023-02-26T23:24:16.594Z,-1.10
2023-02-26T23:26:44.823Z,-1.10
2023-02-26T23:29:12.773Z,-1.10
2023-02-26T23:31:41.813Z,-1.10
2023-02-26T23:34:10.995Z,-1.20
2023-02-26T23:36:39.099Z,-1.10
2023-02-26T23:39:08.652Z,-1.10
2023-02-26T23:41:37.009Z,-1.10
2023-02-26T23:44:04.966Z,-1.10
2023-02-26T23:46:32.965Z,-1.10
2023-02-26T23:49:00.920Z,-1.10
2023-02-26T23:51:28.971Z,-1.10
2023-02-26T23:53:57.009Z,-1.10
2023-02-26T23:56:26.378Z,-1.20
2023-02-26T23:58:54.374Z,-1.10
